sensor_id;sensor_type;location;lat;lon;timestamp;temperature;humidity
11573;DHT22;5842;52.426;4.886;2022-08-21T00:00:48;15.70;99.90
11573;DHT22;5842;52.426;4.886;2022-08-21T00:03:15;15.70;99.90
11573;DHT22;5842;52.426;4.886;2022-08-21T00:05:44;15.70;99.90
11573;DHT22;5842;52.426;4.886;2022-08-21T00:08:12;15.60;99.90
11573;DHT22;5842;52.426;4.886;2022-08-21T00:10:41;15.70;99.90
11573;DHT22;5842;52.426;4.886;2022-08-21T00:13:09;15.60;99.90
11573;DHT22;5842;52.426;4.886;2022-08-21T00:15:37;15.60;99.90
11573;DHT22;5842;52.426;4.886;2022-08-21T00:18:08;15.60;99.90
11573;DHT22;5842;52.426;4.886;2022-08-21T00:20:37;15.50;99.90
11573;DHT22;5842;52.426;4.886;2022-08-21T00:23:05;15.50;99.90
11573;DHT22;5842;52.426;4.886;2022-08-21T00:25:33;15.50;99.90
11573;DHT22;5842;52.426;4.886;2022-08-21T00:28:00;15.50;99.90
11573;DHT22;5842;52.426;4.886;2022-08-21T00:30:30;15.40;99.90
11573;DHT22;5842;52.426;4.886;2022-08-21T00:32:58;15.40;99.90
11573;DHT22;5842;52.426;4.886;2022-08-21T00:35:28;15.40;99.90
11573;DHT22;5842;52.426;4.886;2022-08-21T00:37:56;15.40;99.90
11573;DHT22;5842;52.426;4.886;2022-08-21T00:40:38;15.40;99.90
11573;DHT22;5842;52.426;4.886;2022-08-21T00:43:07;15.40;99.90
11573;DHT22;5842;52.426;4.886;2022-08-21T00:45:35;15.40;99.90
11573;DHT22;5842;52.426;4.886;2022-08-21T00:50:38;15.30;99.90
11573;DHT22;5842;52.426;4.886;2022-08-21T00:53:06;15.30;99.90
11573;DHT22;5842;52.426;4.886;2022-08-21T00:55:34;15.30;99.90
11573;DHT22;5842;52.426;4.886;2022-08-21T00:58:04;15.30;99.90
11573;DHT22;5842;52.426;4.886;2022-08-21T01:00:36;15.40;99.90
11573;DHT22;5842;52.426;4.886;2022-08-21T01:03:07;15.30;99.90
11573;DHT22;5842;52.426;4.886;2022-08-21T01:05:37;15.30;99.90
11573;DHT22;5842;52.426;4.886;2022-08-21T01:08:06;15.30;99.90
11573;DHT22;5842;52.426;4.886;2022-08-21T01:10:34;15.30;99.90
11573;DHT22;5842;52.426;4.886;2022-08-21T01:13:03;15.20;99.90
11573;DHT22;5842;52.426;4.886;2022-08-21T01:15:34;15.20;99.90
11573;DHT22;5842;52.426;4.886;2022-08-21T01:18:03;15.20;99.90
11573;DHT22;5842;52.426;4.886;2022-08-21T01:20:31;15.20;99.90
11573;DHT22;5842;52.426;4.886;2022-08-21T01:23:01;15.20;99.90
11573;DHT22;5842;52.426;4.886;2022-08-21T01:25:28;15.20;99.90
11573;DHT22;5842;52.426;4.886;2022-08-21T01:27:55;15.20;99.90
11573;DHT22;5842;52.426;4.886;2022-08-21T01:30:27;15.20;99.90
11573;DHT22;5842;52.426;4.886;2022-08-21T01:32:54;15.20;99.90
11573;DHT22;5842;52.426;4.886;2022-08-21T01:35:22;15.20;99.90
11573;DHT22;5842;52.426;4.886;2022-08-21T01:37:49;15.20;99.90
11573;DHT22;5842;52.426;4.886;2022-08-21T01:40:18;15.10;99.90
11573;DHT22;5842;52.426;4.886;2022-08-21T01:42:47;15.10;99.90
11573;DHT22;5842;52.426;4.886;2022-08-21T01:45:15;15.10;99.90
11573;DHT22;5842;52.426;4.886;2022-08-21T01:47:43;15.10;99.90
11573;DHT22;5842;52.426;4.886;2022-08-21T01:50:16;15.10;99.90
11573;DHT22;5842;52.426;4.886;2022-08-21T01:52:43;15.10;99.90
11573;DHT22;5842;52.426;4.886;2022-08-21T01:55:12;15.10;99.90
11573;DHT22;5842;52.426;4.886;2022-08-21T01:57:42;15.10;99.90
11573;DHT22;5842;52.426;4.886;2022-08-21T02:00:11;15.10;99.90
11573;DHT22;5842;52.426;4.886;2022-08-21T02:02:40;15.00;99.90
11573;DHT22;5842;52.426;4.886;2022-08-21T02:05:09;15.00;99.90
11573;DHT22;5842;52.426;4.886;2022-08-21T02:07:37;15.10;99.90
11573;DHT22;5842;52.426;4.886;2022-08-21T02:10:07;15.10;99.90
11573;DHT22;5842;52.426;4.886;2022-08-21T02:12:34;15.10;99.90
11573;DHT22;5842;52.426;4.886;2022-08-21T02:15:04;15.10;99.90
11573;DHT22;5842;52.426;4.886;2022-08-21T02:17:41;15.10;99.90
11573;DHT22;5842;52.426;4.886;2022-08-21T02:20:09;15.10;99.90
11573;DHT22;5842;52.426;4.886;2022-08-21T02:22:37;15.10;99.90
11573;DHT22;5842;52.426;4.886;2022-08-21T02:25:05;15.10;99.90
11573;DHT22;5842;52.426;4.886;2022-08-21T02:27:38;15.10;99.90
11573;DHT22;5842;52.426;4.886;2022-08-21T02:30:11;15.10;99.90
11573;DHT22;5842;52.426;4.886;2022-08-21T02:32:39;14.80;99.90
11573;DHT22;5842;52.426;4.886;2022-08-21T02:35:08;15.00;99.90
11573;DHT22;5842;52.426;4.886;2022-08-21T02:37:43;15.00;99.90
11573;DHT22;5842;52.426;4.886;2022-08-21T02:40:11;15.00;99.90
11573;DHT22;5842;52.426;4.886;2022-08-21T02:42:39;15.00;99.90
11573;DHT22;5842;52.426;4.886;2022-08-21T02:45:09;15.00;99.90
11573;DHT22;5842;52.426;4.886;2022-08-21T02:47:36;15.00;99.90
11573;DHT22;5842;52.426;4.886;2022-08-21T02:50:05;15.00;99.90
11573;DHT22;5842;52.426;4.886;2022-08-21T02:52:33;15.00;99.90
11573;DHT22;5842;52.426;4.886;2022-08-21T02:55:01;15.00;99.90
11573;DHT22;5842;52.426;4.886;2022-08-21T02:57:28;15.00;99.90
11573;DHT22;5842;52.426;4.886;2022-08-21T02:59:58;15.00;99.90
11573;DHT22;5842;52.426;4.886;2022-08-21T03:02:26;15.00;99.90
11573;DHT22;5842;52.426;4.886;2022-08-21T03:04:53;15.00;99.90
11573;DHT22;5842;52.426;4.886;2022-08-21T03:07:21;15.00;99.90
11573;DHT22;5842;52.426;4.886;2022-08-21T03:09:48;15.10;99.90
11573;DHT22;5842;52.426;4.886;2022-08-21T03:12:15;15.10;99.90
11573;DHT22;5842;52.426;4.886;2022-08-21T03:14:42;15.10;99.90
11573;DHT22;5842;52.426;4.886;2022-08-21T03:17:10;15.10;99.90
11573;DHT22;5842;52.426;4.886;2022-08-21T03:19:39;15.10;99.90
11573;DHT22;5842;52.426;4.886;2022-08-21T03:22:06;15.00;99.90
11573;DHT22;5842;52.426;4.886;2022-08-21T03:24:34;15.00;99.90
11573;DHT22;5842;52.426;4.886;2022-08-21T03:27:01;15.00;99.90
11573;DHT22;5842;52.426;4.886;2022-08-21T03:29:29;15.00;99.90
11573;DHT22;5842;52.426;4.886;2022-08-21T03:31:56;15.00;99.90
11573;DHT22;5842;52.426;4.886;2022-08-21T03:34:23;15.00;99.90
11573;DHT22;5842;52.426;4.886;2022-08-21T03:36:51;15.00;99.90
11573;DHT22;5842;52.426;4.886;2022-08-21T03:39:22;14.90;99.90
11573;DHT22;5842;52.426;4.886;2022-08-21T03:41:49;14.90;99.90
11573;DHT22;5842;52.426;4.886;2022-08-21T03:44:16;15.00;99.90
11573;DHT22;5842;52.426;4.886;2022-08-21T03:46:43;15.00;99.90
11573;DHT22;5842;52.426;4.886;2022-08-21T03:49:10;15.00;99.90
11573;DHT22;5842;52.426;4.886;2022-08-21T03:51:37;14.90;99.90
11573;DHT22;5842;52.426;4.886;2022-08-21T03:54:06;15.00;99.90
11573;DHT22;5842;52.426;4.886;2022-08-21T03:56:33;15.00;99.90
11573;DHT22;5842;52.426;4.886;2022-08-21T03:59:00;14.90;99.90
11573;DHT22;5842;52.426;4.886;2022-08-21T04:01:29;14.90;99.90
11573;DHT22;5842;52.426;4.886;2022-08-21T04:03:56;15.00;99.90
11573;DHT22;5842;52.426;4.886;2022-08-21T04:06:23;14.90;99.90
11573;DHT22;5842;52.426;4.886;2022-08-21T04:08:52;14.90;99.90
11573;DHT22;5842;52.426;4.886;2022-08-21T04:11:21;14.90;99.90
11573;DHT22;5842;52.426;4.886;2022-08-21T04:13:48;14.90;99.90
11573;DHT22;5842;52.426;4.886;2022-08-21T04:16:15;14.90;99.90
11573;DHT22;5842;52.426;4.886;2022-08-21T04:18:46;15.00;99.90
11573;DHT22;5842;52.426;4.886;2022-08-21T04:21:13;15.00;99.90
11573;DHT22;5842;52.426;4.886;2022-08-21T04:23:40;15.00;99.90
11573;DHT22;5842;52.426;4.886;2022-08-21T04:26:07;15.00;99.90
11573;DHT22;5842;52.426;4.886;2022-08-21T04:28:36;15.10;99.90
11573;DHT22;5842;52.426;4.886;2022-08-21T04:31:03;15.10;99.90
11573;DHT22;5842;52.426;4.886;2022-08-21T04:33:31;15.10;99.90
11573;DHT22;5842;52.426;4.886;2022-08-21T04:35:58;15.10;99.90
11573;DHT22;5842;52.426;4.886;2022-08-21T04:38:25;15.20;99.90
11573;DHT22;5842;52.426;4.886;2022-08-21T04:40:53;15.10;99.90
11573;DHT22;5842;52.426;4.886;2022-08-21T04:43:20;15.10;99.90
11573;DHT22;5842;52.426;4.886;2022-08-21T04:45:52;15.10;99.90
11573;DHT22;5842;52.426;4.886;2022-08-21T04:48:21;15.10;99.90
11573;DHT22;5842;52.426;4.886;2022-08-21T04:50:52;15.10;99.90
11573;DHT22;5842;52.426;4.886;2022-08-21T04:53:22;15.20;99.90
11573;DHT22;5842;52.426;4.886;2022-08-21T04:55:52;15.20;99.90
11573;DHT22;5842;52.426;4.886;2022-08-21T04:58:21;15.20;99.90
11573;DHT22;5842;52.426;4.886;2022-08-21T05:00:54;15.20;99.90
11573;DHT22;5842;52.426;4.886;2022-08-21T05:03:23;15.30;99.90
11573;DHT22;5842;52.426;4.886;2022-08-21T05:05:50;15.20;99.90
11573;DHT22;5842;52.426;4.886;2022-08-21T05:08:19;15.30;99.90
11573;DHT22;5842;52.426;4.886;2022-08-21T05:10:48;15.30;99.90
11573;DHT22;5842;52.426;4.886;2022-08-21T05:13:16;15.40;99.90
11573;DHT22;5842;52.426;4.886;2022-08-21T05:15:44;15.40;99.90
11573;DHT22;5842;52.426;4.886;2022-08-21T05:18:12;15.40;99.90
11573;DHT22;5842;52.426;4.886;2022-08-21T05:20:39;15.50;99.90
11573;DHT22;5842;52.426;4.886;2022-08-21T05:23:08;15.50;99.90
11573;DHT22;5842;52.426;4.886;2022-08-21T05:25:35;15.60;99.90
11573;DHT22;5842;52.426;4.886;2022-08-21T05:28:03;15.60;99.90
11573;DHT22;5842;52.426;4.886;2022-08-21T05:30:34;15.70;99.90
11573;DHT22;5842;52.426;4.886;2022-08-21T05:33:02;15.80;99.90
11573;DHT22;5842;52.426;4.886;2022-08-21T05:35:32;15.80;99.90
11573;DHT22;5842;52.426;4.886;2022-08-21T05:38:00;15.90;99.90
11573;DHT22;5842;52.426;4.886;2022-08-21T05:40:28;15.90;99.90
11573;DHT22;5842;52.426;4.886;2022-08-21T05:42:56;16.00;99.90
11573;DHT22;5842;52.426;4.886;2022-08-21T05:45:28;16.10;99.90
11573;DHT22;5842;52.426;4.886;2022-08-21T05:47:55;16.20;99.90
11573;DHT22;5842;52.426;4.886;2022-08-21T05:50:22;16.20;99.90
11573;DHT22;5842;52.426;4.886;2022-08-21T05:52:51;16.30;99.90
11573;DHT22;5842;52.426;4.886;2022-08-21T05:55:18;16.40;99.90
11573;DHT22;5842;52.426;4.886;2022-08-21T05:57:45;16.50;99.90
11573;DHT22;5842;52.426;4.886;2022-08-21T06:00:13;16.50;99.90
11573;DHT22;5842;52.426;4.886;2022-08-21T06:02:40;16.60;99.90
11573;DHT22;5842;52.426;4.886;2022-08-21T06:05:08;16.70;99.90
11573;DHT22;5842;52.426;4.886;2022-08-21T06:07:35;16.70;99.90
11573;DHT22;5842;52.426;4.886;2022-08-21T06:10:04;16.80;99.90
11573;DHT22;5842;52.426;4.886;2022-08-21T06:12:32;16.90;99.90
11573;DHT22;5842;52.426;4.886;2022-08-21T06:14:59;17.00;99.90
11573;DHT22;5842;52.426;4.886;2022-08-21T06:17:26;17.00;99.90
11573;DHT22;5842;52.426;4.886;2022-08-21T06:19:54;17.10;99.90
11573;DHT22;5842;52.426;4.886;2022-08-21T06:22:21;17.20;99.90
11573;DHT22;5842;52.426;4.886;2022-08-21T06:24:49;17.30;99.90
11573;DHT22;5842;52.426;4.886;2022-08-21T06:27:17;17.40;99.90
11573;DHT22;5842;52.426;4.886;2022-08-21T06:29:44;17.40;99.90
11573;DHT22;5842;52.426;4.886;2022-08-21T06:32:12;17.50;99.90
11573;DHT22;5842;52.426;4.886;2022-08-21T06:34:40;17.60;99.90
11573;DHT22;5842;52.426;4.886;2022-08-21T06:37:07;17.60;99.90
11573;DHT22;5842;52.426;4.886;2022-08-21T06:39:35;17.80;99.90
11573;DHT22;5842;52.426;4.886;2022-08-21T06:42:03;17.80;99.90
11573;DHT22;5842;52.426;4.886;2022-08-21T06:44:32;17.90;99.90
11573;DHT22;5842;52.426;4.886;2022-08-21T06:46:59;18.00;99.90
11573;DHT22;5842;52.426;4.886;2022-08-21T06:49:26;18.10;99.90
11573;DHT22;5842;52.426;4.886;2022-08-21T06:51:53;18.10;99.90
11573;DHT22;5842;52.426;4.886;2022-08-21T06:54:21;18.20;99.90
11573;DHT22;5842;52.426;4.886;2022-08-21T06:56:48;18.20;99.90
11573;DHT22;5842;52.426;4.886;2022-08-21T06:59:15;18.30;99.90
11573;DHT22;5842;52.426;4.886;2022-08-21T07:01:43;18.40;99.90
11573;DHT22;5842;52.426;4.886;2022-08-21T07:04:11;18.60;99.90
11573;DHT22;5842;52.426;4.886;2022-08-21T07:06:38;18.60;99.90
11573;DHT22;5842;52.426;4.886;2022-08-21T07:09:05;18.70;99.90
11573;DHT22;5842;52.426;4.886;2022-08-21T07:11:35;18.90;99.90
11573;DHT22;5842;52.426;4.886;2022-08-21T07:14:03;19.00;99.90
11573;DHT22;5842;52.426;4.886;2022-08-21T07:16:30;19.30;99.90
11573;DHT22;5842;52.426;4.886;2022-08-21T07:18:59;19.50;99.90
11573;DHT22;5842;52.426;4.886;2022-08-21T07:38:42;30.10;97.30
11573;DHT22;5842;52.426;4.886;2022-08-21T07:43:37;32.40;89.80
11573;DHT22;5842;52.426;4.886;2022-08-21T07:46:04;33.20;85.40
11573;DHT22;5842;52.426;4.886;2022-08-21T07:48:31;33.80;83.20
11573;DHT22;5842;52.426;4.886;2022-08-21T07:50:58;34.10;79.00
11573;DHT22;5842;52.426;4.886;2022-08-21T07:53:28;34.70;78.40
11573;DHT22;5842;52.426;4.886;2022-08-21T07:55:58;35.50;72.70
11573;DHT22;5842;52.426;4.886;2022-08-21T07:58:25;35.30;72.60
11573;DHT22;5842;52.426;4.886;2022-08-21T08:00:52;35.60;71.40
11573;DHT22;5842;52.426;4.886;2022-08-21T08:03:18;35.80;69.70
11573;DHT22;5842;52.426;4.886;2022-08-21T08:05:46;35.90;68.50
11573;DHT22;5842;52.426;4.886;2022-08-21T08:08:13;35.90;69.60
11573;DHT22;5842;52.426;4.886;2022-08-21T08:10:40;36.10;68.50
11573;DHT22;5842;52.426;4.886;2022-08-21T08:13:09;35.10;67.00
11573;DHT22;5842;52.426;4.886;2022-08-21T08:15:36;34.20;70.00
11573;DHT22;5842;52.426;4.886;2022-08-21T08:18:03;34.20;71.60
11573;DHT22;5842;52.426;4.886;2022-08-21T08:20:30;34.80;70.10
11573;DHT22;5842;52.426;4.886;2022-08-21T08:22:58;34.90;67.50
11573;DHT22;5842;52.426;4.886;2022-08-21T08:25:25;35.20;67.60
11573;DHT22;5842;52.426;4.886;2022-08-21T08:27:52;35.60;67.50
11573;DHT22;5842;52.426;4.886;2022-08-21T08:30:21;35.90;66.20
11573;DHT22;5842;52.426;4.886;2022-08-21T08:32:49;35.90;68.10
11573;DHT22;5842;52.426;4.886;2022-08-21T08:35:16;36.00;66.10
11573;DHT22;5842;52.426;4.886;2022-08-21T08:37:43;36.20;64.90
11573;DHT22;5842;52.426;4.886;2022-08-21T08:40:11;36.20;65.60
11573;DHT22;5842;52.426;4.886;2022-08-21T08:42:38;36.60;65.70
11573;DHT22;5842;52.426;4.886;2022-08-21T08:45:06;36.60;65.80
11573;DHT22;5842;52.426;4.886;2022-08-21T08:47:37;36.00;66.30
11573;DHT22;5842;52.426;4.886;2022-08-21T08:50:06;35.80;64.30
11573;DHT22;5842;52.426;4.886;2022-08-21T08:52:35;35.10;67.80
11573;DHT22;5842;52.426;4.886;2022-08-21T08:55:03;34.80;69.40
11573;DHT22;5842;52.426;4.886;2022-08-21T08:57:31;33.80;70.20
11573;DHT22;5842;52.426;4.886;2022-08-21T08:59:59;31.70;73.60
11573;DHT22;5842;52.426;4.886;2022-08-21T09:02:26;29.70;80.50
11573;DHT22;5842;52.426;4.886;2022-08-21T09:04:55;27.80;90.10
11573;DHT22;5842;52.426;4.886;2022-08-21T09:07:25;26.20;94.90
11573;DHT22;5842;52.426;4.886;2022-08-21T09:12:28;23.70;99.90
11573;DHT22;5842;52.426;4.886;2022-08-21T09:14:58;23.60;99.90
11573;DHT22;5842;52.426;4.886;2022-08-21T09:20:02;24.00;99.90
11573;DHT22;5842;52.426;4.886;2022-08-21T09:22:36;25.70;99.90
11573;DHT22;5842;52.426;4.886;2022-08-21T09:25:08;27.90;99.90
11573;DHT22;5842;52.426;4.886;2022-08-21T09:27:36;29.20;97.70
11573;DHT22;5842;52.426;4.886;2022-08-21T09:30:07;30.20;95.70
11573;DHT22;5842;52.426;4.886;2022-08-21T09:32:35;30.80;92.50
11573;DHT22;5842;52.426;4.886;2022-08-21T09:35:05;31.00;92.80
11573;DHT22;5842;52.426;4.886;2022-08-21T09:37:44;31.10;91.00
11573;DHT22;5842;52.426;4.886;2022-08-21T09:40:15;31.00;91.00
11573;DHT22;5842;52.426;4.886;2022-08-21T09:42:53;30.60;91.40
11573;DHT22;5842;52.426;4.886;2022-08-21T09:45:20;29.80;92.50
11573;DHT22;5842;52.426;4.886;2022-08-21T09:47:47;29.30;93.00
11573;DHT22;5842;52.426;4.886;2022-08-21T09:50:16;28.80;95.00
11573;DHT22;5842;52.426;4.886;2022-08-21T09:52:45;28.40;94.80
11573;DHT22;5842;52.426;4.886;2022-08-21T09:55:16;27.90;96.50
11573;DHT22;5842;52.426;4.886;2022-08-21T09:57:58;27.50;98.00
11573;DHT22;5842;52.426;4.886;2022-08-21T10:00:26;27.50;99.80
11573;DHT22;5842;52.426;4.886;2022-08-21T10:02:55;27.60;98.90
11573;DHT22;5842;52.426;4.886;2022-08-21T10:05:35;27.20;97.90
11573;DHT22;5842;52.426;4.886;2022-08-21T10:08:02;26.70;98.40
11573;DHT22;5842;52.426;4.886;2022-08-21T10:10:30;25.90;98.50
11573;DHT22;5842;52.426;4.886;2022-08-21T10:12:58;25.30;99.90
11573;DHT22;5842;52.426;4.886;2022-08-21T10:15:33;24.90;99.90
11573;DHT22;5842;52.426;4.886;2022-08-21T10:18:02;24.50;99.90
11573;DHT22;5842;52.426;4.886;2022-08-21T10:20:33;24.50;99.90
11573;DHT22;5842;52.426;4.886;2022-08-21T10:23:06;24.60;99.90
11573;DHT22;5842;52.426;4.886;2022-08-21T10:25:41;24.80;99.90
11573;DHT22;5842;52.426;4.886;2022-08-21T10:28:18;25.30;99.90
11573;DHT22;5842;52.426;4.886;2022-08-21T10:30:52;25.80;99.90
11573;DHT22;5842;52.426;4.886;2022-08-21T10:33:33;26.10;99.90
11573;DHT22;5842;52.426;4.886;2022-08-21T10:36:11;25.90;99.80
11573;DHT22;5842;52.426;4.886;2022-08-21T10:38:55;25.90;99.90
11573;DHT22;5842;52.426;4.886;2022-08-21T10:41:32;26.00;99.90
11573;DHT22;5842;52.426;4.886;2022-08-21T10:44:13;26.20;99.90
11573;DHT22;5842;52.426;4.886;2022-08-21T10:46:51;26.60;99.90
11573;DHT22;5842;52.426;4.886;2022-08-21T10:49:24;27.00;98.50
11573;DHT22;5842;52.426;4.886;2022-08-21T10:52:09;27.10;98.10
11573;DHT22;5842;52.426;4.886;2022-08-21T10:54:51;26.80;97.20
11573;DHT22;5842;52.426;4.886;2022-08-21T10:57:33;26.70;95.80
11573;DHT22;5842;52.426;4.886;2022-08-21T11:00:05;26.40;98.00
11573;DHT22;5842;52.426;4.886;2022-08-21T11:02:38;26.30;97.20
11573;DHT22;5842;52.426;4.886;2022-08-21T11:05:11;26.60;97.30
11573;DHT22;5842;52.426;4.886;2022-08-21T11:07:43;26.50;96.60
11573;DHT22;5842;52.426;4.886;2022-08-21T11:10:18;26.20;96.40
11573;DHT22;5842;52.426;4.886;2022-08-21T11:12:52;26.10;96.80
11573;DHT22;5842;52.426;4.886;2022-08-21T11:15:36;26.00;97.70
11573;DHT22;5842;52.426;4.886;2022-08-21T11:18:21;26.50;95.80
11573;DHT22;5842;52.426;4.886;2022-08-21T11:20:52;26.80;96.80
11573;DHT22;5842;52.426;4.886;2022-08-21T11:23:26;26.70;96.80
11573;DHT22;5842;52.426;4.886;2022-08-21T11:26:01;26.40;97.20
11573;DHT22;5842;52.426;4.886;2022-08-21T11:28:34;26.40;97.00
11573;DHT22;5842;52.426;4.886;2022-08-21T11:31:11;26.50;96.30
11573;DHT22;5842;52.426;4.886;2022-08-21T11:33:51;26.60;96.70
11573;DHT22;5842;52.426;4.886;2022-08-21T11:36:25;26.60;95.10
11573;DHT22;5842;52.426;4.886;2022-08-21T11:39:02;26.50;94.10
11573;DHT22;5842;52.426;4.886;2022-08-21T11:41:37;26.30;94.30
11573;DHT22;5842;52.426;4.886;2022-08-21T11:44:14;26.30;95.60
11573;DHT22;5842;52.426;4.886;2022-08-21T11:46:48;26.50;96.10
11573;DHT22;5842;52.426;4.886;2022-08-21T11:52:16;26.70;95.60
11573;DHT22;5842;52.426;4.886;2022-08-21T11:54:48;26.80;94.90
11573;DHT22;5842;52.426;4.886;2022-08-21T11:57:20;26.90;96.40
11573;DHT22;5842;52.426;4.886;2022-08-21T11:59:52;27.10;96.40
11573;DHT22;5842;52.426;4.886;2022-08-21T12:02:23;27.20;95.50
11573;DHT22;5842;52.426;4.886;2022-08-21T12:04:55;27.30;94.70
11573;DHT22;5842;52.426;4.886;2022-08-21T12:07:33;27.20;95.00
11573;DHT22;5842;52.426;4.886;2022-08-21T12:10:02;27.20;93.50
11573;DHT22;5842;52.426;4.886;2022-08-21T12:12:33;27.00;94.70
11573;DHT22;5842;52.426;4.886;2022-08-21T12:15:25;26.80;94.40
11573;DHT22;5842;52.426;4.886;2022-08-21T12:17:58;26.50;95.10
11573;DHT22;5842;52.426;4.886;2022-08-21T12:20:35;26.40;95.60
11573;DHT22;5842;52.426;4.886;2022-08-21T12:23:15;26.20;96.50
11573;DHT22;5842;52.426;4.886;2022-08-21T12:25:44;26.20;97.30
11573;DHT22;5842;52.426;4.886;2022-08-21T12:28:21;26.10;97.30
11573;DHT22;5842;52.426;4.886;2022-08-21T12:30:50;26.20;97.10
11573;DHT22;5842;52.426;4.886;2022-08-21T12:33:23;26.00;97.30
11573;DHT22;5842;52.426;4.886;2022-08-21T12:35:52;26.00;97.30
11573;DHT22;5842;52.426;4.886;2022-08-21T12:38:22;25.90;97.40
11573;DHT22;5842;52.426;4.886;2022-08-21T12:40:53;25.90;97.40
11573;DHT22;5842;52.426;4.886;2022-08-21T12:43:27;26.00;97.40
11573;DHT22;5842;52.426;4.886;2022-08-21T12:45:56;26.20;95.80
11573;DHT22;5842;52.426;4.886;2022-08-21T12:48:28;26.40;95.30
11573;DHT22;5842;52.426;4.886;2022-08-21T12:50:58;26.50;95.80
11573;DHT22;5842;52.426;4.886;2022-08-21T12:53:38;26.50;96.00
11573;DHT22;5842;52.426;4.886;2022-08-21T12:56:10;26.80;95.10
11573;DHT22;5842;52.426;4.886;2022-08-21T12:58:44;26.90;95.30
11573;DHT22;5842;52.426;4.886;2022-08-21T13:01:17;26.90;95.70
11573;DHT22;5842;52.426;4.886;2022-08-21T13:03:48;26.80;96.20
11573;DHT22;5842;52.426;4.886;2022-08-21T13:06:17;26.70;96.00
11573;DHT22;5842;52.426;4.886;2022-08-21T13:08:47;26.50;95.80
11573;DHT22;5842;52.426;4.886;2022-08-21T13:11:16;26.20;95.30
11573;DHT22;5842;52.426;4.886;2022-08-21T13:13:48;26.10;96.20
11573;DHT22;5842;52.426;4.886;2022-08-21T13:16:19;26.10;97.00
11573;DHT22;5842;52.426;4.886;2022-08-21T13:18:54;26.20;97.50
11573;DHT22;5842;52.426;4.886;2022-08-21T13:21:26;26.20;96.20
11573;DHT22;5842;52.426;4.886;2022-08-21T13:23:54;25.90;96.90
11573;DHT22;5842;52.426;4.886;2022-08-21T13:26:21;25.80;96.20
11573;DHT22;5842;52.426;4.886;2022-08-21T13:28:50;25.70;96.40
11573;DHT22;5842;52.426;4.886;2022-08-21T13:31:22;25.50;95.80
11573;DHT22;5842;52.426;4.886;2022-08-21T13:33:51;25.40;95.50
11573;DHT22;5842;52.426;4.886;2022-08-21T13:36:24;25.40;97.30
11573;DHT22;5842;52.426;4.886;2022-08-21T13:38:54;25.50;96.60
11573;DHT22;5842;52.426;4.886;2022-08-21T13:41:24;25.70;95.90
11573;DHT22;5842;52.426;4.886;2022-08-21T13:43:59;25.90;95.70
11573;DHT22;5842;52.426;4.886;2022-08-21T13:46:29;26.10;95.50
11573;DHT22;5842;52.426;4.886;2022-08-21T13:48:58;26.20;94.90
11573;DHT22;5842;52.426;4.886;2022-08-21T13:51:26;26.30;94.60
11573;DHT22;5842;52.426;4.886;2022-08-21T13:53:53;26.30;95.60
11573;DHT22;5842;52.426;4.886;2022-08-21T13:56:26;26.20;95.70
11573;DHT22;5842;52.426;4.886;2022-08-21T13:58:55;26.20;95.30
11573;DHT22;5842;52.426;4.886;2022-08-21T14:01:26;26.20;95.80
11573;DHT22;5842;52.426;4.886;2022-08-21T14:03:56;26.30;95.80
11573;DHT22;5842;52.426;4.886;2022-08-21T14:06:26;26.30;96.10
11573;DHT22;5842;52.426;4.886;2022-08-21T14:08:56;26.20;96.50
11573;DHT22;5842;52.426;4.886;2022-08-21T14:11:25;26.20;96.60
11573;DHT22;5842;52.426;4.886;2022-08-21T14:13:58;26.20;96.10
11573;DHT22;5842;52.426;4.886;2022-08-21T14:16:29;26.30;95.70
11573;DHT22;5842;52.426;4.886;2022-08-21T14:19:18;26.20;96.10
11573;DHT22;5842;52.426;4.886;2022-08-21T14:21:46;26.00;95.60
11573;DHT22;5842;52.426;4.886;2022-08-21T14:24:25;25.80;96.70
11573;DHT22;5842;52.426;4.886;2022-08-21T14:26:55;25.50;96.90
11573;DHT22;5842;52.426;4.886;2022-08-21T14:29:26;25.40;96.80
11573;DHT22;5842;52.426;4.886;2022-08-21T14:31:57;25.40;96.20
11573;DHT22;5842;52.426;4.886;2022-08-21T14:34:27;25.50;97.40
11573;DHT22;5842;52.426;4.886;2022-08-21T14:36:55;25.50;97.00
11573;DHT22;5842;52.426;4.886;2022-08-21T14:39:22;25.30;96.30
11573;DHT22;5842;52.426;4.886;2022-08-21T14:41:52;25.00;95.90
11573;DHT22;5842;52.426;4.886;2022-08-21T14:44:19;24.90;96.20
11573;DHT22;5842;52.426;4.886;2022-08-21T14:46:47;24.80;97.30
11573;DHT22;5842;52.426;4.886;2022-08-21T14:49:16;24.60;97.80
11573;DHT22;5842;52.426;4.886;2022-08-21T14:51:43;24.40;98.10
11573;DHT22;5842;52.426;4.886;2022-08-21T14:54:10;24.30;98.00
11573;DHT22;5842;52.426;4.886;2022-08-21T14:56:37;24.40;98.50
11573;DHT22;5842;52.426;4.886;2022-08-21T14:59:07;24.40;98.20
11573;DHT22;5842;52.426;4.886;2022-08-21T15:01:36;24.40;98.80
11573;DHT22;5842;52.426;4.886;2022-08-21T15:06:33;24.40;95.80
11573;DHT22;5842;52.426;4.886;2022-08-21T15:09:00;24.40;95.60
11573;DHT22;5842;52.426;4.886;2022-08-21T15:11:29;24.40;97.00
11573;DHT22;5842;52.426;4.886;2022-08-21T15:13:58;24.50;95.90
11573;DHT22;5842;52.426;4.886;2022-08-21T15:16:27;24.50;97.10
11573;DHT22;5842;52.426;4.886;2022-08-21T15:18:55;24.40;97.10
11573;DHT22;5842;52.426;4.886;2022-08-21T15:21:22;24.50;96.70
11573;DHT22;5842;52.426;4.886;2022-08-21T15:23:51;24.60;95.80
11573;DHT22;5842;52.426;4.886;2022-08-21T15:26:20;24.70;96.80
11573;DHT22;5842;52.426;4.886;2022-08-21T15:28:48;24.70;96.80
11573;DHT22;5842;52.426;4.886;2022-08-21T15:31:15;24.70;95.90
11573;DHT22;5842;52.426;4.886;2022-08-21T15:33:42;24.80;96.40
11573;DHT22;5842;52.426;4.886;2022-08-21T15:36:09;24.80;95.40
11573;DHT22;5842;52.426;4.886;2022-08-21T15:38:37;24.90;95.50
11573;DHT22;5842;52.426;4.886;2022-08-21T15:41:08;24.90;96.10
11573;DHT22;5842;52.426;4.886;2022-08-21T15:43:40;24.90;96.70
11573;DHT22;5842;52.426;4.886;2022-08-21T15:46:10;24.90;96.30
11573;DHT22;5842;52.426;4.886;2022-08-21T15:48:38;24.90;96.20
11573;DHT22;5842;52.426;4.886;2022-08-21T15:51:05;24.90;95.20
11573;DHT22;5842;52.426;4.886;2022-08-21T15:53:33;24.70;95.50
11573;DHT22;5842;52.426;4.886;2022-08-21T15:56:18;24.50;95.50
11573;DHT22;5842;52.426;4.886;2022-08-21T15:58:47;24.50;95.70
11573;DHT22;5842;52.426;4.886;2022-08-21T16:01:14;24.40;96.20
11573;DHT22;5842;52.426;4.886;2022-08-21T16:03:42;24.20;96.70
11573;DHT22;5842;52.426;4.886;2022-08-21T16:06:11;24.20;96.60
11573;DHT22;5842;52.426;4.886;2022-08-21T16:08:38;24.30;97.50
11573;DHT22;5842;52.426;4.886;2022-08-21T16:11:07;24.40;97.80
11573;DHT22;5842;52.426;4.886;2022-08-21T16:13:38;24.40;95.90
11573;DHT22;5842;52.426;4.886;2022-08-21T16:16:09;24.40;96.70
11573;DHT22;5842;52.426;4.886;2022-08-21T16:18:38;24.20;97.20
11573;DHT22;5842;52.426;4.886;2022-08-21T16:21:05;24.20;98.00
11573;DHT22;5842;52.426;4.886;2022-08-21T16:23:34;24.10;97.10
11573;DHT22;5842;52.426;4.886;2022-08-21T16:28:35;23.90;97.10
11573;DHT22;5842;52.426;4.886;2022-08-21T16:31:03;23.80;96.30
11573;DHT22;5842;52.426;4.886;2022-08-21T16:35:59;23.50;97.80
11573;DHT22;5842;52.426;4.886;2022-08-21T16:38:26;23.40;97.50